WetterOnline ( https://www.wetteronline.ch )

Wetter aktuell Pinneberg

Aktuelles Wetter: Quickborn (17m)

6-stündlich | Neueste Meldungen
Ortszeit Temperatur Wetter
Mo, 21.09. 2:00 4.9° C Nebel
So, 20.09. 20:00 15.2° C wolkenlos
So, 20.09. 14:00 20.5° C wolkenlos
So, 20.09. 8:00 3.6° C wolkenlos
So, 20.09. 2:00 10.5° C wolkenlos
Sa, 19.09. 20:00 15.2° C bedeckt
Sa, 19.09. 14:00 19.2° C wolkig
Sa, 19.09. 8:00 4.4° C leicht bewölkt
Ortszeit Temperatur Wetter
Mo, 21.09. 4:00 3.8° C Nebel
Mo, 21.09. 3:50 3.8° C Nebel
Mo, 21.09. 3:40 4.5° C Nebel
Mo, 21.09. 3:30 4.3° C Nebel
Mo, 21.09. 3:20 4.3° C Nebel
Mo, 21.09. 3:10 4.6° C Nebel
Mo, 21.09. 3:00 4.4° C Nebel
Mo, 21.09. 2:30 5.4° C Nebel
Mo, 21.09. 2:00 4.9° C Nebel
Mo, 21.09. 1:30 5.2° C Nebel
Mo, 21.09. 1:00 5.2° C Nebel
Mo, 21.09. 0:30 6.8° C Nebel
Ortszeit Relative Feuchte Sichtweite
Mo, 21.09. 2:00 98% <100 m
So, 20.09. 20:00 60% 50 km
So, 20.09. 14:00 36% >70 km
So, 20.09. 8:00 97% 8 km
So, 20.09. 2:00 78% 50 km
Sa, 19.09. 20:00 66% 50 km
Sa, 19.09. 14:00 41% 55 km
Sa, 19.09. 8:00 98% 16 km
Ortszeit Relative Feuchte Sichtweite
Mo, 21.09. 4:00 100% 0.9 km
Mo, 21.09. 3:50 100% -
Mo, 21.09. 3:40 100% -
Mo, 21.09. 3:30 100% 0.2 km
Mo, 21.09. 3:20 100% -
Mo, 21.09. 3:10 99% -
Mo, 21.09. 3:00 100% <100 m
Mo, 21.09. 2:30 100% <100 m
Mo, 21.09. 2:00 98% <100 m
Mo, 21.09. 1:30 99% 100 m
Mo, 21.09. 1:00 97% 100 m
Mo, 21.09. 0:30 97% 100 m
Ortszeit Niederschlagsmenge Niederschlagsart
Mo, 21.09. 2:00 0.0 l/m2 in 6 Std. -
So, 20.09. 20:00 0.0 l/m2 in 12 Std. -
So, 20.09. 14:00 0.0 l/m2 in 6 Std. -
So, 20.09. 8:00 0.0 l/m2 in 12 Std. -
So, 20.09. 2:00 0.0 l/m2 in 6 Std. -
Sa, 19.09. 20:00 0.0 l/m2 in 12 Std. -
Sa, 19.09. 14:00 0.0 l/m2 in 6 Std. -
Sa, 19.09. 8:00 0.0 l/m2 in 12 Std. -
Ortszeit Niederschlagsmenge Niederschlagsart
Mo, 21.09. 4:00 0.0 l/m2 in 1 Std. -
Mo, 21.09. 3:50 keine Meldung -
Mo, 21.09. 3:40 keine Meldung -
Mo, 21.09. 3:30 0.0 l/m2 in 1 Std. -
Mo, 21.09. 3:20 keine Meldung -
Mo, 21.09. 3:10 keine Meldung -
Mo, 21.09. 3:00 0.0 l/m2 in 1 Std. -
Mo, 21.09. 2:30 0.0 l/m2 in 1 Std. -
Mo, 21.09. 2:00 0.0 l/m2 in 1 Std. -
Mo, 21.09. 1:30 0.0 l/m2 in 1 Std. -
Mo, 21.09. 1:00 0.0 l/m2 in 1 Std. -
Mo, 21.09. 0:30 0.0 l/m2 in 1 Std. -
Ortszeit Stärke Spitze Richtung
km/h Bft. km/h Grad Sektor
Mo, 21.09. 2:00 4 1 18 350° N
So, 20.09. 20:00 6 1 22 60° NO
So, 20.09. 14:00 13 3 26 80° O
So, 20.09. 8:00 2 1 15 310° NW
So, 20.09. 2:00 9 2 17 70° O
Sa, 19.09. 20:00 7 2 31 60° NO
Sa, 19.09. 14:00 9 2 24 90° O
Sa, 19.09. 8:00 2 1 15 330° NW
Ortszeit Stärke Spitze Richtung
km/h Bft. km/h Grad Sektor
Mo, 21.09. 4:00 4 1 4 80° O
Mo, 21.09. 3:50 4 1 - 80° O
Mo, 21.09. 3:40 2 1 - 110° O
Mo, 21.09. 3:30 0 0 4 - -
Mo, 21.09. 3:20 2 1 - 40° NO
Mo, 21.09. 3:10 2 1 - 360° N
Mo, 21.09. 3:00 2 1 4 270° W
Mo, 21.09. 2:30 4 1 4 340° N
Mo, 21.09. 2:00 4 1 7 350° N
Mo, 21.09. 1:30 4 1 7 350° N
Mo, 21.09. 1:00 4 1 4 360° N
Mo, 21.09. 0:30 4 1 4 340° N
Ortszeit Untergrenze Bedeckung Gattung
total tief tief mittel hoch
Mo, 21.09. 2:00 <30 m 0/8 0/8 - - -
So, 20.09. 20:00 - 0/8 0/8 - - -
So, 20.09. 14:00 - 0/8 0/8 - - -
So, 20.09. 8:00 - 0/8 0/8 - - -
So, 20.09. 2:00 9000 m 0/8 0/8 - - -
Sa, 19.09. 20:00 6000 m 8/8 8/8 - - -
Sa, 19.09. 14:00 8100 m 8/8 0/8 - - -
Sa, 19.09. 8:00 10500 m 5/8 0/8 - - -
Ortszeit Bedeckungsgrad in Achtel und Wolkenuntergrenze
Mo, 21.09. 4:00 keine Wolken
Mo, 21.09. 3:50 keine Wolken
Mo, 21.09. 3:40 keine Wolken
Mo, 21.09. 3:30 3(<30m)
Mo, 21.09. 3:20 3(<30m)
Mo, 21.09. 3:10 6(<30m)
Mo, 21.09. 3:00 6(<30m)
Mo, 21.09. 2:30 1(<30m)
Mo, 21.09. 2:00 1(<30m)
Mo, 21.09. 1:30 keine Wolken
Mo, 21.09. 1:00 keine Wolken
Mo, 21.09. 0:30 keine Wolken
Ortszeit Luftdruck NN (hPa) Tendenz (hPa in 3 Std.)
Mo, 21.09. 2:00 1020 - 0,2
So, 20.09. 20:00 1020 + 0,5
So, 20.09. 14:00 1020 - 1,3
So, 20.09. 8:00 1021 + 0,2
So, 20.09. 2:00 1022 - 0,1
Sa, 19.09. 20:00 1021 - 0,5
Sa, 19.09. 14:00 1024 - 1,6
Sa, 19.09. 8:00 1025 - 0,4
Ortszeit Luftdruck NN (hPa) Tendenz (hPa in 3 Std.)
Mo, 21.09. 4:00 1020 - 0,7
Mo, 21.09. 3:50 1020 keine Meldung
Mo, 21.09. 3:40 1020 keine Meldung
Mo, 21.09. 3:30 1020 - 0,5
Mo, 21.09. 3:20 1020 keine Meldung
Mo, 21.09. 3:10 1020 keine Meldung
Mo, 21.09. 3:00 1020 - 0,4
Mo, 21.09. 2:30 1020 - 0,4
Mo, 21.09. 2:00 1020 - 0,2
Mo, 21.09. 1:30 1020 0,0
Mo, 21.09. 1:00 1020 + 0,1
Mo, 21.09. 0:30 1020 + 0,3
Ortszeit Schneehöhe (cm)
Mo, 21.09. 2:00 -
So, 20.09. 20:00 -
So, 20.09. 14:00 -
So, 20.09. 8:00 -
So, 20.09. 2:00 -
Sa, 19.09. 20:00 -
Sa, 19.09. 14:00 -
Sa, 19.09. 8:00 -
Ortszeit Schneehöhe (cm)
Mo, 21.09. 4:00 -
Mo, 21.09. 3:50 -
Mo, 21.09. 3:40 -
Mo, 21.09. 3:30 -
Mo, 21.09. 3:20 -
Mo, 21.09. 3:10 -
Mo, 21.09. 3:00 -
Mo, 21.09. 2:30 -
Mo, 21.09. 2:00 -
Mo, 21.09. 1:30 -
Mo, 21.09. 1:00 -
Mo, 21.09. 0:30 -
Link zu dieser Seite / Seite empfehlen

Das Wetter in ...